Buxton, Maine
Current Conditions -  °F | °C
As of 1:51 AM on Thursday 27 Nov 2014 (Local Time) from KPWM Reporting Station
Light Snow Light Snow  
Wind Chill: 22°   Ceiling: 1400
Heat Index: 33°   Visibility: 1.2mi
Dew Point: 30°   Wind: 18mph
Humidity: 89%   Direction: 350°N
Pressure: 29.71"   Gusts: NA
Location:  43.6671°N, 70.5709°W
Report Text: KPWM 270651Z 35016KT 1 1/4SM -SN BR SCT010 OVC014 01/M01 A2971 RMK AO2 PK WND 36029/0614 SLP062 P0002 T00061011 $
Loading
Personal Weather Stations






























Interactive Weather Map New forecast layout! Learn more

10-Day Weather Forecast

Advertisements
Track Severe Weather on mobile